createdAt,value
2018-01-12T00:02:12.704Z,24.70
2018-01-12T00:04:40.126Z,24.20
2018-01-12T00:07:07.556Z,23.47
2018-01-12T00:09:35.802Z,22.83
2018-01-12T00:12:03.222Z,20.80
2018-01-12T00:14:30.635Z,20.70
2018-01-12T00:16:58.056Z,20.17
2018-01-12T00:19:25.488Z,20.53
2018-01-12T00:21:52.898Z,19.40
2018-01-12T00:24:20.327Z,20.90
2018-01-12T00:26:47.742Z,19.23
2018-01-12T00:29:15.945Z,21.00
2018-01-12T00:31:43.358Z,20.67
2018-01-12T00:34:10.788Z,22.10
2018-01-12T00:36:38.206Z,20.90
2018-01-12T00:39:05.626Z,20.63
2018-01-12T00:41:33.060Z,20.23
2018-01-12T00:44:00.488Z,20.27
2018-01-12T00:46:27.910Z,19.23
2018-01-12T00:48:56.660Z,19.10
2018-01-12T00:51:24.084Z,18.57
2018-01-12T00:53:51.941Z,18.03
2018-01-12T00:56:19.361Z,16.83
2018-01-12T00:58:46.786Z,17.23
2018-01-12T01:01:14.683Z,16.93
2018-01-12T01:03:44.681Z,16.90
2018-01-12T01:06:12.119Z,17.27
2018-01-12T01:08:39.658Z,17.43
2018-01-12T01:11:07.077Z,17.30
2018-01-12T01:13:34.498Z,16.30
2018-01-12T01:16:01.910Z,17.70
2018-01-12T01:18:29.751Z,17.37
2018-01-12T01:20:57.173Z,17.23
2018-01-12T01:23:27.195Z,16.73
2018-01-12T01:25:55.054Z,16.53
2018-01-12T01:28:24.394Z,16.77
2018-01-12T01:30:51.822Z,17.83
2018-01-12T01:33:19.251Z,16.97
2018-01-12T01:35:46.694Z,17.10
2018-01-12T01:38:15.539Z,16.70
2018-01-12T01:40:42.965Z,16.63
2018-01-12T01:43:10.420Z,17.20
2018-01-12T01:45:38.389Z,18.43
2018-01-12T01:48:06.389Z,18.13
2018-01-12T01:50:33.823Z,20.67
2018-01-12T01:53:01.246Z,20.63
2018-01-12T01:55:28.676Z,22.30
2018-01-12T01:57:56.105Z,18.80
2018-01-12T02:00:23.533Z,17.37
2018-01-12T02:02:50.982Z,15.60
2018-01-12T02:05:19.584Z,17.20
2018-01-12T02:07:47.006Z,16.30
2018-01-12T02:10:21.280Z,15.73
2018-01-12T02:12:49.895Z,16.63
2018-01-12T02:15:17.315Z,15.83
2018-01-12T02:17:45.498Z,17.43
2018-01-12T02:20:12.935Z,17.43
2018-01-12T02:22:41.317Z,18.00
2018-01-12T02:25:08.737Z,16.37
2018-01-12T02:27:36.168Z,17.23
2018-01-12T02:30:04.016Z,17.30
2018-01-12T02:32:31.428Z,17.10
2018-01-12T02:34:58.853Z,17.10
2018-01-12T02:37:26.283Z,18.27
2018-01-12T02:39:54.413Z,15.83
2018-01-12T02:42:21.835Z,18.23
2018-01-12T02:47:42.598Z,19.90
2018-01-12T02:50:10.018Z,19.10
2018-01-12T02:52:37.446Z,18.13
2018-01-12T02:55:04.877Z,16.77
2018-01-12T02:57:32.295Z,17.50
2018-01-12T03:00:00.504Z,17.00
2018-01-12T03:02:28.742Z,16.13
2018-01-12T03:04:56.934Z,16.53
2018-01-12T03:07:26.223Z,18.67
2018-01-12T03:10:13.896Z,17.20
2018-01-12T03:12:44.142Z,19.47
2018-01-12T03:15:11.983Z,20.43
2018-01-12T03:17:39.455Z,20.20
2018-01-12T03:20:11.299Z,19.17
2018-01-12T03:22:38.719Z,20.60
2018-01-12T03:25:06.917Z,18.80
2018-01-12T03:27:35.047Z,19.70
2018-01-12T03:30:02.900Z,20.93
2018-01-12T03:32:30.314Z,20.87
2018-01-12T03:34:57.851Z,20.90
2018-01-12T03:37:26.036Z,19.93
2018-01-12T03:39:54.015Z,20.73
2018-01-12T03:42:21.431Z,19.13
2018-01-12T03:44:48.860Z,18.37
2018-01-12T03:47:16.684Z,17.60
2018-01-12T03:49:44.115Z,18.17
2018-01-12T03:52:11.934Z,17.67
2018-01-12T03:54:39.607Z,15.50
2018-01-12T03:57:07.104Z,17.03
2018-01-12T03:59:35.303Z,17.73
2018-01-12T04:02:02.815Z,19.70
2018-01-12T04:04:30.238Z,20.33
2018-01-12T04:06:57.659Z,16.70
2018-01-12T04:09:25.854Z,17.13
2018-01-12T04:11:53.274Z,18.93
2018-01-12T04:14:20.694Z,19.80
2018-01-12T04:16:48.549Z,20.70
2018-01-12T04:19:15.974Z,21.10
2018-01-12T04:21:44.154Z,20.03
2018-01-12T04:24:11.576Z,18.43
2018-01-12T04:26:39.003Z,22.50
2018-01-12T04:29:06.639Z,22.30
2018-01-12T04:31:34.156Z,25.20
2018-01-12T04:34:02.184Z,26.77
2018-01-12T04:36:29.588Z,25.40
2018-01-12T04:38:57.012Z,22.13
2018-01-12T04:41:24.427Z,19.87
2018-01-12T04:43:51.861Z,22.70
2018-01-12T04:46:19.496Z,25.17
2018-01-12T04:48:46.935Z,21.77
2018-01-12T04:51:14.783Z,22.83
2018-01-12T04:53:42.749Z,21.17
2018-01-12T04:56:10.173Z,22.27
2018-01-12T04:58:37.597Z,21.67
2018-01-12T05:01:06.933Z,20.77
2018-01-12T05:03:34.353Z,28.47
2018-01-12T05:06:02.068Z,32.50
2018-01-12T05:08:29.479Z,30.43
2018-01-12T05:10:56.908Z,29.83
2018-01-12T05:13:24.339Z,32.43
2018-01-12T05:15:52.538Z,34.90
2018-01-12T05:18:19.972Z,31.60
2018-01-12T05:20:50.994Z,29.90
2018-01-12T05:23:20.104Z,29.43
2018-01-12T05:25:48.299Z,29.10
2018-01-12T05:28:15.711Z,25.30
2018-01-12T05:30:43.524Z,25.27
2018-01-12T05:33:11.682Z,27.33
2018-01-12T05:35:40.031Z,28.40
2018-01-12T05:38:07.428Z,31.30
2018-01-12T05:40:34.851Z,29.07
2018-01-12T05:43:02.478Z,29.03
2018-01-12T05:45:29.918Z,28.93
2018-01-12T05:47:57.336Z,28.03
2018-01-12T05:50:25.535Z,23.77
2018-01-12T05:52:52.956Z,22.80
2018-01-12T05:55:20.383Z,22.70
2018-01-12T05:57:47.808Z,23.63
2018-01-12T06:00:15.237Z,22.17
2018-01-12T06:02:55.226Z,21.67
2018-01-12T06:05:34.856Z,20.43
2018-01-12T06:08:02.271Z,22.57
2018-01-12T06:10:30.382Z,22.50
2018-01-12T06:12:58.357Z,21.77
2018-01-12T06:15:25.784Z,22.30
2018-01-12T06:17:58.345Z,21.10
2018-01-12T06:20:26.930Z,28.07
2018-01-12T06:22:54.347Z,26.67
2018-01-12T06:25:21.770Z,25.57
2018-01-12T06:27:49.193Z,26.70
2018-01-12T06:30:16.620Z,27.00
2018-01-12T06:32:44.051Z,26.77
2018-01-12T06:35:11.477Z,31.53
2018-01-12T06:37:39.171Z,33.43
2018-01-12T06:40:07.339Z,30.27
2018-01-12T06:42:34.763Z,30.60
2018-01-12T06:45:02.186Z,28.50
2018-01-12T06:47:29.603Z,30.57
2018-01-12T06:49:57.041Z,27.70
2018-01-12T06:52:24.454Z,28.80
2018-01-12T06:54:51.878Z,29.37
2018-01-12T06:57:19.300Z,28.63
2018-01-12T06:59:46.723Z,27.03
2018-01-12T07:02:14.337Z,27.30
2018-01-12T07:04:42.919Z,29.10
2018-01-12T07:07:10.315Z,28.13
2018-01-12T07:09:37.748Z,30.53
2018-01-12T07:12:05.823Z,29.57
2018-01-12T07:14:34.609Z,28.87
2018-01-12T07:17:02.027Z,29.67
2018-01-12T07:19:29.446Z,26.37
2018-01-12T07:22:08.808Z,28.37
2018-01-12T07:24:36.838Z,26.40
2018-01-12T07:27:04.284Z,27.27
2018-01-12T07:29:32.471Z,36.07
2018-01-12T07:31:59.891Z,29.40
2018-01-12T07:34:28.112Z,27.50
2018-01-12T07:36:55.531Z,27.17
2018-01-12T07:39:23.718Z,27.33
2018-01-12T07:41:51.871Z,26.73
2018-01-12T07:44:29.323Z,27.67
2018-01-12T07:46:58.018Z,25.00
2018-01-12T07:49:25.439Z,24.90
2018-01-12T07:51:53.403Z,26.67
2018-01-12T07:54:21.748Z,24.37
2018-01-12T07:56:49.167Z,26.33
2018-01-12T07:59:16.596Z,26.93
2018-01-12T08:01:49.644Z,26.33
2018-01-12T08:04:17.067Z,25.20
2018-01-12T08:06:44.490Z,25.73
2018-01-12T08:09:11.914Z,27.17
2018-01-12T08:11:39.338Z,26.90
2018-01-12T08:14:06.766Z,26.77
2018-01-12T08:16:37.398Z,26.07
2018-01-12T08:19:04.819Z,23.97
2018-01-12T08:21:32.784Z,26.27
2018-01-12T08:24:00.203Z,26.20
2018-01-12T08:26:27.635Z,27.47
2018-01-12T08:28:55.063Z,25.77
2018-01-12T08:31:22.696Z,23.17
2018-01-12T08:33:50.120Z,22.27
2018-01-12T08:36:17.552Z,23.27
2018-01-12T08:38:45.738Z,22.47
2018-01-12T08:41:13.176Z,21.90
2018-01-12T08:43:48.675Z,20.90
2018-01-12T08:46:16.315Z,20.53
2018-01-12T08:48:44.290Z,18.73
2018-01-12T08:51:11.722Z,20.57
2018-01-12T08:53:39.908Z,20.83
2018-01-12T08:56:07.730Z,21.87
2018-01-12T08:58:35.127Z,20.07
2018-01-12T09:01:04.377Z,20.83
2018-01-12T09:03:31.799Z,20.10
2018-01-12T09:05:59.221Z,22.47
2018-01-12T09:08:27.410Z,22.90
2018-01-12T09:10:54.839Z,22.97
2018-01-12T09:16:27.736Z,23.40
2018-01-12T09:21:59.991Z,22.87
2018-01-12T09:24:27.420Z,21.97
2018-01-12T09:26:54.842Z,24.27
2018-01-12T09:29:22.261Z,24.47
2018-01-12T09:31:51.369Z,24.30
2018-01-12T09:34:30.498Z,22.43
2018-01-12T09:36:58.686Z,23.10
2018-01-12T09:39:38.578Z,22.00
2018-01-12T09:42:06.291Z,22.87
2018-01-12T09:44:33.681Z,23.10
2018-01-12T09:47:13.647Z,22.17
2018-01-12T09:49:46.757Z,22.57
2018-01-12T09:52:14.179Z,24.20
2018-01-12T09:54:44.347Z,24.03
2018-01-12T09:57:11.755Z,23.90
2018-01-12T09:59:43.487Z,22.70
2018-01-12T10:02:10.909Z,22.90
2018-01-12T10:04:38.710Z,23.57
2018-01-12T10:07:16.979Z,24.00
2018-01-12T10:09:53.001Z,48.37
2018-01-12T10:12:20.428Z,44.53
2018-01-12T10:14:47.842Z,29.03
2018-01-12T10:17:15.477Z,24.40
2018-01-12T10:22:52.190Z,23.50
2018-01-12T10:25:19.615Z,24.20
2018-01-12T10:27:47.040Z,25.07
2018-01-12T10:30:22.207Z,24.73
2018-01-12T10:32:49.626Z,26.20
2018-01-12T10:35:18.262Z,26.13
2018-01-12T10:37:46.454Z,23.77
2018-01-12T10:40:19.838Z,24.63
2018-01-12T10:42:51.904Z,23.63
2018-01-12T10:45:20.079Z,24.07
2018-01-12T10:47:50.089Z,25.53
2018-01-12T10:50:18.392Z,24.20
2018-01-12T10:52:51.288Z,24.87
2018-01-12T10:55:18.708Z,24.40
2018-01-12T10:57:46.897Z,25.37
2018-01-12T11:00:26.991Z,22.70
2018-01-12T11:02:54.415Z,23.03
2018-01-12T11:05:21.839Z,24.90
2018-01-12T11:07:49.258Z,23.10
2018-01-12T11:10:17.104Z,23.13
2018-01-12T11:12:45.272Z,22.37
2018-01-12T11:15:12.715Z,22.93
2018-01-12T11:17:40.922Z,22.90
2018-01-12T11:20:08.339Z,23.53
2018-01-12T11:22:36.534Z,23.77
2018-01-12T11:25:03.955Z,21.43
2018-01-12T11:27:31.422Z,21.30
2018-01-12T11:29:59.604Z,25.00
2018-01-12T11:32:27.791Z,23.83
2018-01-12T11:34:55.426Z,25.33
2018-01-12T11:37:23.285Z,25.47
2018-01-12T11:39:50.728Z,23.33
2018-01-12T11:42:18.162Z,26.57
2018-01-12T11:44:46.600Z,25.10
2018-01-12T11:47:14.791Z,25.53
2018-01-12T11:49:42.218Z,26.87
2018-01-12T11:52:09.647Z,26.60
2018-01-12T11:54:37.075Z,25.73
2018-01-12T11:57:14.997Z,24.53
2018-01-12T11:59:42.437Z,27.30
2018-01-12T12:02:10.383Z,26.93
2018-01-12T12:04:37.814Z,25.93
2018-01-12T12:07:05.738Z,26.37
2018-01-12T12:09:33.155Z,26.07
2018-01-12T12:12:01.343Z,26.93
2018-01-12T12:14:28.816Z,27.47
2018-01-12T12:16:56.226Z,27.50
2018-01-12T12:19:23.658Z,25.57
2018-01-12T12:21:58.511Z,27.13
2018-01-12T12:24:30.270Z,27.17
2018-01-12T12:26:57.695Z,25.63
2018-01-12T12:29:25.132Z,27.60
2018-01-12T12:31:52.556Z,26.13
2018-01-12T12:34:20.743Z,27.03
2018-01-12T12:36:48.171Z,29.63
2018-01-12T12:39:16.290Z,27.03
2018-01-12T12:41:43.759Z,27.83
2018-01-12T12:44:11.193Z,28.33
2018-01-12T12:46:38.627Z,28.47
2018-01-12T12:49:06.821Z,28.50
2018-01-12T12:51:49.241Z,27.37
2018-01-12T12:54:17.408Z,29.13
2018-01-12T12:56:44.840Z,26.77
2018-01-12T12:59:13.430Z,26.77
2018-01-12T13:01:41.639Z,25.73
2018-01-12T13:04:11.009Z,25.70
2018-01-12T13:06:42.544Z,28.37
2018-01-12T13:09:09.972Z,27.00
2018-01-12T13:11:37.391Z,29.30
2018-01-12T13:14:04.810Z,29.50
2018-01-12T13:16:32.243Z,31.57
2018-01-12T13:19:00.093Z,27.93
2018-01-12T13:21:28.112Z,29.10
2018-01-12T13:24:00.286Z,28.17
2018-01-12T13:26:28.751Z,27.07
2018-01-12T13:28:56.156Z,28.20
2018-01-12T13:31:23.587Z,27.77
2018-01-12T13:33:55.618Z,29.47
2018-01-12T13:36:23.047Z,27.10
2018-01-12T13:38:53.416Z,26.73
2018-01-12T13:41:20.972Z,29.03
2018-01-12T13:43:48.392Z,27.70
2018-01-12T13:46:15.815Z,29.43
2018-01-12T13:48:43.250Z,29.27
2018-01-12T13:51:17.315Z,27.50
2018-01-12T13:53:44.742Z,29.03
2018-01-12T13:56:12.165Z,28.17
2018-01-12T13:58:39.693Z,29.27
2018-01-12T14:01:07.116Z,26.97
2018-01-12T14:03:35.002Z,29.67
2018-01-12T14:06:02.428Z,27.73
2018-01-12T14:08:30.617Z,30.73
2018-01-12T14:10:58.042Z,30.87
2018-01-12T14:13:25.471Z,29.67
2018-01-12T14:15:52.887Z,31.00
2018-01-12T14:18:20.434Z,31.60
2018-01-12T14:20:48.613Z,30.03
2018-01-12T14:23:16.399Z,32.03
2018-01-12T14:25:43.816Z,30.50
2018-01-12T14:28:11.997Z,28.63
2018-01-12T14:30:42.097Z,27.47
2018-01-12T14:33:09.834Z,27.07
2018-01-12T14:35:37.259Z,25.57
2018-01-12T14:38:05.267Z,26.13
2018-01-12T14:40:32.677Z,27.00
2018-01-12T14:43:00.114Z,25.17
2018-01-12T14:45:28.351Z,23.53
2018-01-12T14:47:56.649Z,25.27
2018-01-12T14:50:24.078Z,23.77
2018-01-12T14:52:51.499Z,23.97
2018-01-12T14:55:18.933Z,23.13
2018-01-12T14:57:46.366Z,23.40
2018-01-12T15:00:14.480Z,21.90
2018-01-12T15:02:42.670Z,23.97
2018-01-12T15:05:10.096Z,23.43
2018-01-12T15:07:40.209Z,21.93
2018-01-12T15:10:07.635Z,21.50
2018-01-12T15:12:35.056Z,22.07
2018-01-12T15:15:03.025Z,22.93
2018-01-12T15:17:30.466Z,22.07
2018-01-12T15:19:58.655Z,24.70
2018-01-12T15:22:26.084Z,23.03
2018-01-12T15:24:54.053Z,22.77
2018-01-12T15:27:22.659Z,20.57
2018-01-12T15:29:57.118Z,20.17
2018-01-12T15:32:24.581Z,20.90
2018-01-12T15:35:12.707Z,21.43
2018-01-12T15:37:40.128Z,19.87
2018-01-12T15:40:08.319Z,18.10
2018-01-12T15:42:36.171Z,19.63
2018-01-12T15:45:04.366Z,18.97
2018-01-12T15:47:32.366Z,18.53
2018-01-12T15:49:59.801Z,19.33
2018-01-12T15:52:27.922Z,19.43
2018-01-12T15:54:55.438Z,19.87
2018-01-12T15:57:23.467Z,22.23
2018-01-12T15:59:51.663Z,22.17
2018-01-12T16:02:19.090Z,21.97
2018-01-12T16:04:47.291Z,19.73
2018-01-12T16:07:14.710Z,19.20
2018-01-12T16:09:42.196Z,18.10
2018-01-12T16:12:10.163Z,17.63
2018-01-12T16:14:38.364Z,16.40
2018-01-12T16:17:29.281Z,18.13
2018-01-12T16:19:57.961Z,16.53
2018-01-12T16:22:25.395Z,15.97
2018-01-12T16:24:53.736Z,15.97
2018-01-12T16:27:21.159Z,16.33
2018-01-12T16:29:48.578Z,16.23
2018-01-12T16:32:17.381Z,16.50
2018-01-12T16:34:44.933Z,16.50
2018-01-12T16:37:12.410Z,17.67
2018-01-12T16:39:39.912Z,16.47
2018-01-12T16:42:07.909Z,16.83
2018-01-12T16:44:36.309Z,15.97
2018-01-12T16:47:03.835Z,16.10
2018-01-12T16:49:31.330Z,16.43
2018-01-12T16:51:59.778Z,17.00
2018-01-12T16:54:28.003Z,16.80
2018-01-12T16:57:01.910Z,17.50
2018-01-12T16:59:29.398Z,18.40
2018-01-12T17:01:56.846Z,17.17
2018-01-12T17:04:24.891Z,18.80
2018-01-12T17:06:52.325Z,16.10
2018-01-12T17:09:20.524Z,18.40
2018-01-12T17:11:47.957Z,15.67
2018-01-12T17:14:15.419Z,17.07
2018-01-12T17:16:42.876Z,15.83
2018-01-12T17:19:11.113Z,15.70
2018-01-12T17:21:38.832Z,17.20
2018-01-12T17:24:06.241Z,16.77
2018-01-12T17:26:36.776Z,17.60
2018-01-12T17:29:05.025Z,16.13
2018-01-12T17:31:43.277Z,18.63
2018-01-12T17:34:11.588Z,17.77
2018-01-12T17:36:39.156Z,17.20
2018-01-12T17:39:06.585Z,17.67
2018-01-12T17:41:34.777Z,18.20
2018-01-12T17:44:02.187Z,16.80
2018-01-12T17:46:30.387Z,15.97
2018-01-12T17:48:58.507Z,17.90
2018-01-12T17:51:25.932Z,15.73
2018-01-12T17:53:53.350Z,17.73
2018-01-12T17:56:21.534Z,18.27
2018-01-12T17:58:48.955Z,19.13
2018-01-12T18:01:16.396Z,18.37
2018-01-12T18:03:43.819Z,17.27
2018-01-12T18:08:49.013Z,17.73
2018-01-12T18:11:16.447Z,17.90
2018-01-12T18:13:43.890Z,18.53
2018-01-12T18:16:11.344Z,18.13
2018-01-12T18:18:39.587Z,17.77
2018-01-12T18:21:07.801Z,18.13
2018-01-12T18:23:35.211Z,18.07
2018-01-12T18:26:02.677Z,17.77
2018-01-12T18:28:53.020Z,18.27
2018-01-12T18:31:20.471Z,18.07
2018-01-12T18:33:47.914Z,19.80
2018-01-12T18:36:15.386Z,18.90
2018-01-12T18:38:42.850Z,20.27
2018-01-12T18:41:10.345Z,18.90
2018-01-12T18:43:37.777Z,19.57
2018-01-12T18:46:05.248Z,19.00
2018-01-12T18:48:32.686Z,19.50
2018-01-12T18:51:00.116Z,18.70
2018-01-12T18:53:27.556Z,18.83
2018-01-12T18:55:55.003Z,19.13
2018-01-12T18:58:22.466Z,20.23
2018-01-12T19:00:49.918Z,18.40
2018-01-12T19:03:18.119Z,18.57
2018-01-12T19:05:45.584Z,18.47
2018-01-12T19:08:13.019Z,18.07
2018-01-12T19:10:40.481Z,19.93
2018-01-12T19:13:07.971Z,18.70
2018-01-12T19:15:42.960Z,18.90
2018-01-12T19:18:10.432Z,18.60
2018-01-12T19:20:37.869Z,18.23
2018-01-12T19:23:06.132Z,18.73
2018-01-12T19:25:33.613Z,18.47
2018-01-12T19:28:01.106Z,19.17
2018-01-12T19:30:28.597Z,18.83
2018-01-12T19:32:56.116Z,19.77
2018-01-12T19:35:23.638Z,19.40
2018-01-12T19:37:51.832Z,18.43
2018-01-12T19:40:19.279Z,18.80
2018-01-12T19:42:46.726Z,19.27
2018-01-12T19:45:14.156Z,19.27
2018-01-12T19:47:41.617Z,20.37
2018-01-12T19:50:09.082Z,19.13
2018-01-12T19:52:36.522Z,20.20
2018-01-12T19:55:04.028Z,19.13
2018-01-12T19:57:32.202Z,19.43
2018-01-12T19:59:59.680Z,19.33
2018-01-12T20:02:27.943Z,20.10
2018-01-12T20:04:55.343Z,20.17
2018-01-12T20:07:22.775Z,21.87
2018-01-12T20:09:52.716Z,21.17
2018-01-12T20:12:20.172Z,19.90
2018-01-12T20:14:47.597Z,20.97
2018-01-12T20:17:15.353Z,22.50
2018-01-12T20:19:42.779Z,22.00
2018-01-12T20:22:10.979Z,22.10
2018-01-12T20:24:45.043Z,23.60
2018-01-12T20:27:13.681Z,21.87
2018-01-12T20:29:41.088Z,22.87
2018-01-12T20:32:08.935Z,23.90
2018-01-12T20:34:36.359Z,21.93
2018-01-12T20:37:03.785Z,23.07
2018-01-12T20:39:31.983Z,22.83
2018-01-12T20:41:59.425Z,23.83
2018-01-12T20:44:27.621Z,23.73
2018-01-12T20:46:55.493Z,23.97
2018-01-12T20:49:22.922Z,23.53
2018-01-12T20:51:52.267Z,24.43
2018-01-12T20:54:19.720Z,23.60
2018-01-12T20:56:47.174Z,22.67
2018-01-12T20:59:14.601Z,22.90
2018-01-12T21:01:42.064Z,22.87
2018-01-12T21:04:12.124Z,23.87
2018-01-12T21:06:39.572Z,23.70
2018-01-12T21:09:07.012Z,23.07
2018-01-12T21:11:34.948Z,23.20
2018-01-12T21:14:03.170Z,23.73
2018-01-12T21:16:30.631Z,22.13
2018-01-12T21:18:58.658Z,22.47
2018-01-12T21:21:26.877Z,22.63
2018-01-12T21:23:54.294Z,23.40
2018-01-12T21:26:21.752Z,21.73
2018-01-12T21:28:49.174Z,23.00
2018-01-12T21:31:16.612Z,22.97
2018-01-12T21:33:44.050Z,21.97
2018-01-12T21:36:19.596Z,20.97
2018-01-12T21:38:47.034Z,22.23
2018-01-12T21:41:14.536Z,22.40
2018-01-12T21:43:41.904Z,21.43
2018-01-12T21:46:09.343Z,24.33
2018-01-12T21:48:36.784Z,21.10
2018-01-12T21:51:04.243Z,22.20
2018-01-12T21:53:31.679Z,23.37
2018-01-12T21:55:59.536Z,24.50
2018-01-12T21:58:41.292Z,23.50
2018-01-12T22:01:08.728Z,23.70
2018-01-12T22:03:36.175Z,23.20
2018-01-12T22:06:03.633Z,24.40
2018-01-12T22:08:31.056Z,23.27
2018-01-12T22:10:58.533Z,22.70
2018-01-12T22:13:25.977Z,24.90
2018-01-12T22:16:06.985Z,24.30
2018-01-12T22:18:34.415Z,24.03
2018-01-12T22:21:01.880Z,24.20
2018-01-12T22:23:29.377Z,22.37
2018-01-12T22:25:56.816Z,23.57
2018-01-12T22:28:24.525Z,23.97
2018-01-12T22:30:51.923Z,23.13
2018-01-12T22:33:19.495Z,22.47
2018-01-12T22:35:46.947Z,23.43
2018-01-12T22:38:14.417Z,24.40
2018-01-12T22:40:42.387Z,24.27
2018-01-12T22:43:11.846Z,23.40
2018-01-12T22:45:39.263Z,23.77
2018-01-12T22:48:07.124Z,24.37
2018-01-12T22:50:34.548Z,26.43
2018-01-12T22:53:01.992Z,24.67
2018-01-12T22:55:30.610Z,26.77
2018-01-12T22:57:58.040Z,24.93
2018-01-12T23:00:25.624Z,25.57
2018-01-12T23:02:53.314Z,23.27
2018-01-12T23:05:20.728Z,24.43
2018-01-12T23:07:48.152Z,23.43
2018-01-12T23:10:15.580Z,24.43
2018-01-12T23:12:43.728Z,23.97
2018-01-12T23:15:13.608Z,24.90
2018-01-12T23:17:41.043Z,24.60
2018-01-12T23:20:09.034Z,23.67
2018-01-12T23:22:37.688Z,24.63
2018-01-12T23:25:05.871Z,23.80
2018-01-12T23:27:33.300Z,24.73
2018-01-12T23:30:00.736Z,22.67
2018-01-12T23:32:28.171Z,23.17
2018-01-12T23:34:55.596Z,24.47
2018-01-12T23:37:23.789Z,21.83
2018-01-12T23:39:51.220Z,23.97
2018-01-12T23:42:19.699Z,23.00
2018-01-12T23:44:47.115Z,24.37
2018-01-12T23:47:14.539Z,24.27
2018-01-12T23:49:41.976Z,24.17
2018-01-12T23:52:09.411Z,23.20
2018-01-12T23:54:36.836Z,23.40
2018-01-12T23:57:04.704Z,22.77
2018-01-12T23:59:37.038Z,23.03
